Time;durP1;ratioP1;P1;durP2;ratioP2;P2;SDS_P1;SDS_P2;PMS_P1;PMS_P2;Temp;Humidity;BMP_temperature;BMP_pressure;BME280_temperature;BME280_humidity;BME280_pressure;Samples;Min_cycle;Max_cycle;Signal;HPM_P1;HPM_P2
2022/12/16 00:01:49;;;;;;;46.00;28.83;;;0.20;99.90;;;;;;5015877;28;20214;-77
2022/12/16 00:04:19;;;;;;;42.93;27.13;;;0.20;99.90;;;;;;5015699;28;20671;-76
2022/12/16 00:06:47;;;;;;;42.87;27.90;;;0.10;99.90;;;;;;5015378;28;20209;-77
2022/12/16 00:09:15;;;;;;;44.60;28.30;;;0.10;99.90;;;;;;5016194;28;20249;-77
2022/12/16 00:11:45;;;;;;;42.30;26.63;;;0.20;99.90;;;;;;5029388;28;20212;-76
2022/12/16 00:14:13;;;;;;;44.87;27.57;;;0.20;99.90;;;;;;5035534;28;20244;-76
2022/12/16 00:16:41;;;;;;;41.17;26.53;;;0.10;99.90;;;;;;5034926;28;20216;-78
2022/12/16 00:19:09;;;;;;;46.77;27.13;;;0.10;99.90;;;;;;5018904;28;20209;-78
2022/12/16 00:21:37;;;;;;;40.27;26.47;;;0.20;99.90;;;;;;5015199;28;20742;-77
2022/12/16 00:24:05;;;;;;;41.50;26.93;;;0.20;99.90;;;;;;5015285;28;20452;-75
2022/12/16 00:26:33;;;;;;;45.57;27.83;;;0.10;99.90;;;;;;5015436;28;20584;-77
2022/12/16 00:29:04;;;;;;;42.53;25.90;;;0.20;99.90;;;;;;5015136;28;20560;-78
2022/12/16 00:31:32;;;;;;;41.77;26.27;;;0.20;99.90;;;;;;5015351;28;20268;-77
2022/12/16 00:34:01;;;;;;;40.83;25.70;;;0.20;99.90;;;;;;5014984;28;20473;-76
2022/12/16 00:36:29;;;;;;;39.03;25.53;;;0.20;99.90;;;;;;5015201;28;20229;-77
2022/12/16 00:38:57;;;;;;;41.07;25.40;;;0.20;99.90;;;;;;5015411;28;20221;-75
2022/12/16 00:41:25;;;;;;;37.43;25.40;;;0.30;99.90;;;;;;5015335;28;20216;-76
2022/12/16 00:43:53;;;;;;;41.87;25.73;;;0.20;99.90;;;;;;5015026;28;20217;-76
2022/12/16 00:46:22;;;;;;;44.50;26.90;;;0.20;99.90;;;;;;5015441;28;20227;-77
2022/12/16 00:48:51;;;;;;;39.30;26.07;;;0.20;99.90;;;;;;5014803;28;20300;-75
2022/12/16 00:51:19;;;;;;;39.97;25.10;;;0.20;99.90;;;;;;5015225;28;20259;-76
2022/12/16 00:53:47;;;;;;;50.37;31.27;;;0.20;99.90;;;;;;5031880;28;20215;-78
2022/12/16 00:56:15;;;;;;;63.97;38.50;;;0.20;99.90;;;;;;5047471;28;20638;-76
2022/12/16 00:58:43;;;;;;;58.93;38.60;;;0.10;99.90;;;;;;5034550;28;20233;-75
2022/12/16 01:01:12;;;;;;;63.73;40.67;;;0.10;99.90;;;;;;5029198;28;20573;-77
2022/12/16 01:03:42;;;;;;;68.47;42.40;;;0.00;99.90;;;;;;5014432;28;20214;-76
2022/12/16 01:06:11;;;;;;;66.83;42.20;;;0.00;99.90;;;;;;5014822;28;20213;-76
2022/12/16 01:08:47;;;;;;;70.83;43.80;;;0.00;99.90;;;;;;5014548;28;20814;-76
2022/12/16 01:11:17;;;;;;;71.77;43.80;;;-0.10;99.90;;;;;;5014225;28;20239;-78
2022/12/16 01:13:45;;;;;;;70.50;43.63;;;-0.10;99.90;;;;;;5014248;28;20225;-75
2022/12/16 01:16:14;;;;;;;69.97;43.23;;;-0.10;99.90;;;;;;5014389;28;20209;-78
2022/12/16 01:18:43;;;;;;;68.10;42.50;;;0.00;99.90;;;;;;5013309;28;20259;-77
2022/12/16 01:24:06;;;;;;;77.20;45.97;;;-0.10;99.90;;;;;;5015906;28;20202;-78
2022/12/16 01:26:35;;;;;;;73.93;45.50;;;-0.10;99.90;;;;;;5015489;28;20694;-75
2022/12/16 01:29:03;;;;;;;74.43;44.13;;;-0.20;99.90;;;;;;5014361;28;20463;-77
2022/12/16 01:31:31;;;;;;;71.60;43.77;;;-0.20;99.90;;;;;;5013582;28;20244;-75
2022/12/16 01:34:01;;;;;;;75.00;44.10;;;-0.20;99.90;;;;;;5021215;28;20475;-76
2022/12/16 01:36:29;;;;;;;74.37;43.33;;;-0.20;99.90;;;;;;5033745;28;20478;-77
2022/12/16 01:38:57;;;;;;;68.77;43.67;;;-0.20;99.90;;;;;;5033624;28;20457;-76
2022/12/16 01:41:26;;;;;;;71.20;42.67;;;-0.10;99.90;;;;;;5033621;28;20280;-77
2022/12/16 01:44:12;;;;;;;69.83;42.57;;;-0.20;99.90;;;;;;5016797;28;20500;-77
2022/12/16 01:46:42;;;;;;;67.83;42.37;;;-0.10;99.90;;;;;;5013696;28;20452;-80
2022/12/16 01:49:22;;;;;;;66.13;41.30;;;-0.10;99.90;;;;;;5013525;28;20464;-76
2022/12/16 01:51:50;;;;;;;63.20;41.00;;;-0.20;99.90;;;;;;5021905;28;20247;-77
2022/12/16 01:54:27;;;;;;;62.23;40.93;;;-0.20;99.90;;;;;;5033092;28;20301;-78
2022/12/16 01:56:59;;;;;;;66.03;42.07;;;-0.20;99.90;;;;;;5033668;28;20439;-77
2022/12/16 01:59:30;;;;;;;61.93;39.33;;;-0.20;99.90;;;;;;5032648;28;20292;-77
2022/12/16 02:01:59;;;;;;;64.90;40.40;;;-0.20;99.90;;;;;;5033184;28;20432;-78
2022/12/16 02:04:29;;;;;;;62.80;38.87;;;-0.20;99.90;;;;;;5033203;28;20270;-78
2022/12/16 02:06:59;;;;;;;64.97;40.60;;;-0.20;99.90;;;;;;5032895;28;20552;-79
2022/12/16 02:09:27;;;;;;;57.30;39.37;;;-0.20;99.90;;;;;;5013867;28;20471;-78
2022/12/16 02:12:19;;;;;;;60.40;40.10;;;-0.30;99.90;;;;;;5013023;28;20484;-76
2022/12/16 02:15:07;;;;;;;62.53;40.40;;;-0.30;99.90;;;;;;5013550;28;20447;-79
2022/12/16 02:17:41;;;;;;;63.83;40.70;;;-0.30;99.90;;;;;;5013477;28;20463;-77
2022/12/16 02:20:38;;;;;;;57.87;38.80;;;-0.30;99.90;;;;;;5013133;28;20826;-76
2022/12/16 02:23:34;;;;;;;60.53;39.93;;;-0.30;99.90;;;;;;5002899;28;20214;-77
2022/12/16 02:26:20;;;;;;;62.47;40.73;;;-0.20;99.90;;;;;;5032086;28;20848;-78
2022/12/16 02:29:13;;;;;;;59.70;40.87;;;-0.20;99.90;;;;;;5034363;28;20213;-76
2022/12/16 02:31:49;;;;;;;59.20;39.70;;;-0.30;99.90;;;;;;5033698;28;20483;-77
2022/12/16 02:34:28;;;;;;;59.80;39.87;;;-0.30;99.90;;;;;;5016160;28;20226;-77
2022/12/16 02:37:10;;;;;;;57.50;39.17;;;-0.30;99.90;;;;;;5021826;28;20201;-79
2022/12/16 02:39:42;;;;;;;58.83;38.63;;;-0.40;99.90;;;;;;5029410;28;20459;-76
2022/12/16 02:42:16;;;;;;;59.60;39.90;;;-0.50;99.90;;;;;;5014458;28;20193;-79
2022/12/16 02:44:53;;;;;;;60.33;40.07;;;-0.50;99.90;;;;;;5014810;28;20429;-80
2022/12/16 02:47:23;;;;;;;59.00;39.17;;;-0.60;99.90;;;;;;5014297;28;20230;-79
2022/12/16 02:49:53;;;;;;;61.07;39.10;;;-0.50;99.90;;;;;;5014299;28;20445;-80
2022/12/16 02:52:25;;;;;;;60.60;39.47;;;-0.60;99.90;;;;;;5022804;28;20216;-80
2022/12/16 02:54:56;;;;;;;61.27;38.43;;;-0.60;99.90;;;;;;5033448;28;20466;-79
2022/12/16 02:57:46;;;;;;;60.87;38.50;;;-0.70;99.90;;;;;;5034182;28;20438;-77
2022/12/16 03:00:17;;;;;;;58.23;38.87;;;-0.70;99.90;;;;;;5034259;28;20235;-80
2022/12/16 03:02:54;;;;;;;59.13;38.33;;;-0.80;99.90;;;;;;5034343;28;20288;-80
2022/12/16 03:05:27;;;;;;;57.30;37.50;;;-0.80;99.90;;;;;;5017127;28;20315;-74
2022/12/16 03:07:58;;;;;;;63.37;39.10;;;-0.80;99.90;;;;;;5013482;28;20436;-79
2022/12/16 03:10:31;;;;;;;60.87;39.07;;;-0.80;99.90;;;;;;5013683;28;20482;-77
2022/12/16 03:13:01;;;;;;;61.60;39.53;;;-0.80;99.90;;;;;;5029877;28;20478;-77
2022/12/16 03:15:32;;;;;;;62.23;40.10;;;-0.70;99.90;;;;;;5033757;28;20448;-80
2022/12/16 03:18:05;;;;;;;60.93;40.47;;;-0.80;99.90;;;;;;5033452;28;20469;-79
2022/12/16 03:20:37;;;;;;;61.50;39.97;;;-0.80;99.90;;;;;;5015391;28;20464;-79
2022/12/16 03:23:19;;;;;;;60.90;38.97;;;-0.90;99.90;;;;;;5013414;28;20547;-80
2022/12/16 03:25:50;;;;;;;66.83;42.83;;;-1.00;99.90;;;;;;4995944;28;20464;-80
2022/12/16 03:28:28;;;;;;;68.03;42.07;;;-1.10;99.90;;;;;;5013750;28;20483;-76
2022/12/16 03:31:03;;;;;;;66.90;41.30;;;-1.00;99.90;;;;;;5013164;28;20993;-77
2022/12/16 03:33:39;;;;;;;65.87;41.13;;;-1.00;99.90;;;;;;5033507;28;20560;-74
2022/12/16 03:36:13;;;;;;;64.67;41.80;;;-1.00;99.90;;;;;;5055043;28;20443;-77
2022/12/16 03:38:43;;;;;;;63.00;40.30;;;-1.00;99.90;;;;;;5033392;28;20565;-80
2022/12/16 03:41:13;;;;;;;65.27;42.07;;;-1.00;99.90;;;;;;5019744;28;20484;-77
2022/12/16 03:43:41;;;;;;;66.47;42.33;;;-1.00;99.90;;;;;;5016443;28;20444;-75
2022/12/16 03:46:10;;;;;;;67.70;41.40;;;-1.20;99.90;;;;;;5017717;28;20228;-79
2022/12/16 03:48:46;;;;;;;63.43;41.27;;;-1.10;99.90;;;;;;5025055;28;20482;-79
2022/12/16 03:51:14;;;;;;;70.03;42.83;;;-1.10;99.90;;;;;;5036914;28;20493;-80
2022/12/16 03:53:43;;;;;;;66.33;42.63;;;-1.20;99.90;;;;;;5037610;28;20604;-77
2022/12/16 03:56:11;;;;;;;71.37;43.70;;;-1.20;99.90;;;;;;5033394;28;20471;-78
2022/12/16 03:58:39;;;;;;;66.37;41.90;;;-1.30;99.90;;;;;;5017259;28;20455;-80
2022/12/16 04:01:09;;;;;;;64.77;41.70;;;-1.20;99.90;;;;;;5016321;28;20937;-80
2022/12/16 04:03:39;;;;;;;66.73;42.10;;;-1.30;99.90;;;;;;5016543;28;20463;-80
2022/12/16 04:06:07;;;;;;;66.70;41.43;;;-1.30;99.90;;;;;;5018854;28;21023;-78
2022/12/16 04:08:35;;;;;;;65.60;40.97;;;-1.30;99.90;;;;;;5036738;28;20458;-78
2022/12/16 04:25:06;;;;;;;65.90;41.67;;;-1.30;99.90;;;;;;5016076;28;21133;-80
2022/12/16 04:27:35;;;;;;;71.33;44.13;;;-1.30;99.90;;;;;;5028613;28;20833;-80
2022/12/16 04:30:19;;;;;;;68.97;42.93;;;-1.30;99.90;;;;;;5035653;28;20479;-80
